createdAt,value
2023-01-29T00:01:13.935Z,102515.88
2023-01-29T00:03:41.544Z,102521.97
2023-01-29T00:06:09.383Z,102514.47
2023-01-29T00:08:41.389Z,102511.16
2023-01-29T00:11:09.299Z,102506.09
2023-01-29T00:13:42.580Z,102508.66
2023-01-29T00:16:22.239Z,102510.59
2023-01-29T00:18:49.893Z,102495.91
2023-01-29T00:21:19.058Z,102495.16
2023-01-29T00:23:46.600Z,102499.63
2023-01-29T00:26:13.977Z,102492.03
2023-01-29T00:28:46.887Z,102492.03
2023-01-29T00:31:19.707Z,102474.78
2023-01-29T00:33:47.206Z,102475.72
2023-01-29T00:36:22.621Z,102475.78
2023-01-29T00:39:00.890Z,102474.91
2023-01-29T00:41:49.602Z,102470.75
2023-01-29T00:44:34.982Z,102468.09
2023-01-29T00:47:29.704Z,102472.38
2023-01-29T00:49:57.594Z,102453.38
2023-01-29T00:52:25.074Z,102457.72
2023-01-29T00:55:01.258Z,102444.66
2023-01-29T00:57:32.744Z,102444.72
2023-01-29T01:00:13.189Z,102447.34
2023-01-29T01:03:02.709Z,102452.56
2023-01-29T01:05:29.508Z,102449.13
2023-01-29T01:08:01.279Z,102456.94
2023-01-29T01:10:33.432Z,102454.56
2023-01-29T01:13:06.462Z,102448.47
2023-01-29T01:15:42.948Z,102455.38
2023-01-29T01:18:09.714Z,102448.53
2023-01-29T01:20:38.658Z,102456.25
2023-01-29T01:23:05.338Z,102452.81
2023-01-29T01:25:36.088Z,102464.78
2023-01-29T01:28:17.892Z,102454.56
2023-01-29T01:30:48.377Z,102451.16
2023-01-29T01:33:15.137Z,102449.41
2023-01-29T01:35:41.753Z,102452.00
2023-01-29T01:38:09.415Z,102462.34
2023-01-29T01:40:36.455Z,102460.66
2023-01-29T01:43:03.880Z,102453.81
2023-01-29T01:45:33.114Z,102450.44
2023-01-29T01:48:06.206Z,102452.19
2023-01-29T01:50:36.689Z,102454.75
2023-01-29T01:53:21.494Z,102451.38
2023-01-29T01:55:56.274Z,102455.72
2023-01-29T01:58:43.744Z,102447.19
2023-01-29T02:01:13.068Z,102450.59
2023-01-29T02:04:13.939Z,102448.06
2023-01-29T02:07:00.296Z,102451.47
2023-01-29T02:09:39.453Z,102448.06
2023-01-29T02:12:08.089Z,102446.44
2023-01-29T02:14:39.589Z,102441.31
2023-01-29T02:17:16.738Z,102435.28
2023-01-29T02:20:21.359Z,102431.00
2023-01-29T02:23:09.816Z,102430.06
2023-01-29T02:26:07.979Z,102435.94
2023-01-29T02:29:22.653Z,102434.19
2023-01-29T02:32:07.373Z,102431.59
2023-01-29T02:34:55.726Z,102434.25
2023-01-29T02:37:35.032Z,102429.97
2023-01-29T02:40:21.271Z,102420.56
2023-01-29T02:42:57.785Z,102425.75
2023-01-29T02:45:45.649Z,102424.09
2023-01-29T02:48:23.960Z,102429.38
2023-01-29T02:51:03.627Z,102431.06
2023-01-29T02:53:36.448Z,102431.22
2023-01-29T02:56:35.999Z,102417.66
2023-01-29T02:59:40.636Z,102404.72
2023-01-29T03:02:22.279Z,102397.94
2023-01-29T03:05:08.956Z,102391.84
2023-01-29T03:07:52.249Z,102397.09
2023-01-29T03:10:32.386Z,102407.50
2023-01-29T03:13:06.334Z,102403.31
2023-01-29T03:15:53.806Z,102398.16
2023-01-29T03:18:33.702Z,102403.44
2023-01-29T03:21:37.305Z,102396.66
2023-01-29T03:24:27.410Z,102394.03
2023-01-29T03:27:13.024Z,102392.41
2023-01-29T03:30:02.692Z,102386.44
2023-01-29T03:32:41.424Z,102393.34
2023-01-29T03:35:13.075Z,102398.50
2023-01-29T03:37:49.177Z,102392.53
2023-01-29T03:40:16.929Z,102389.16
2023-01-29T03:43:10.829Z,102390.03
2023-01-29T03:46:10.687Z,102367.78
2023-01-29T03:48:48.007Z,102373.75
2023-01-29T03:51:38.768Z,102371.19
2023-01-29T03:54:36.678Z,102372.81
2023-01-29T03:57:19.899Z,102360.75
2023-01-29T03:59:57.535Z,102363.41
2023-01-29T04:02:35.637Z,102354.75
2023-01-29T04:05:27.484Z,102340.91
2023-01-29T04:08:08.162Z,102334.00
2023-01-29T04:10:39.020Z,102339.19
2023-01-29T04:13:12.002Z,102334.09
2023-01-29T04:15:50.932Z,102337.53
2023-01-29T04:18:27.715Z,102328.19
2023-01-29T04:20:56.106Z,102319.63
2023-01-29T04:23:30.997Z,102319.69
2023-01-29T04:26:22.751Z,102320.75
2023-01-29T04:29:30.448Z,102306.19
2023-01-29T04:32:28.533Z,102302.81
2023-01-29T04:35:15.691Z,102288.09
2023-01-29T04:37:56.303Z,102295.22
2023-01-29T04:40:37.753Z,102286.56
2023-01-29T04:43:17.529Z,102282.34
2023-01-29T04:46:15.594Z,102273.78
2023-01-29T04:49:27.054Z,102268.44
2023-01-29T04:52:45.245Z,102282.41
2023-01-29T04:55:37.143Z,102292.00
2023-01-29T04:58:09.255Z,102290.25
2023-01-29T05:00:42.051Z,102289.47
2023-01-29T05:03:12.674Z,102296.31
2023-01-29T05:05:46.654Z,102292.94
2023-01-29T05:08:20.860Z,102295.50
2023-01-29T05:11:00.707Z,102290.38
2023-01-29T05:13:38.523Z,102291.25
2023-01-29T05:16:27.898Z,102293.94
2023-01-29T05:18:55.224Z,102293.88
2023-01-29T05:21:28.584Z,102294.88
2023-01-29T05:24:20.723Z,102294.13
2023-01-29T05:27:08.875Z,102292.31
2023-01-29T05:29:35.690Z,102292.25
2023-01-29T05:32:14.774Z,102299.16
2023-01-29T05:34:47.835Z,102298.28
2023-01-29T05:37:16.401Z,102306.56
2023-01-29T05:39:49.426Z,102318.31
2023-01-29T05:42:16.763Z,102308.81
2023-01-29T05:44:47.778Z,102305.25
2023-01-29T05:47:24.932Z,102314.72
2023-01-29T05:49:54.503Z,102307.75
2023-01-29T05:52:25.005Z,102312.97
2023-01-29T05:54:52.742Z,102304.19
2023-01-29T05:57:22.618Z,102312.84
2023-01-29T05:59:51.374Z,102312.84
2023-01-29T06:02:26.833Z,102318.94
2023-01-29T06:04:57.462Z,102318.94
2023-01-29T06:07:30.056Z,102330.06
2023-01-29T06:09:57.219Z,102324.09
2023-01-29T06:12:24.492Z,102330.19
2023-01-29T06:14:54.659Z,102330.88
2023-01-29T06:17:21.859Z,102337.78
2023-01-29T06:19:51.274Z,102332.63
2023-01-29T06:22:21.684Z,102335.25
2023-01-29T06:24:49.307Z,102330.06
2023-01-29T06:27:16.459Z,102328.41
2023-01-29T06:29:49.379Z,102324.22
2023-01-29T06:32:19.528Z,102331.13
2023-01-29T06:34:52.735Z,102332.75
2023-01-29T06:37:20.435Z,102330.19
2023-01-29T06:39:48.541Z,102323.31
2023-01-29T06:42:21.607Z,102325.13
2023-01-29T06:45:00.895Z,102326.94
2023-01-29T06:47:36.468Z,102328.56
2023-01-29T06:50:16.023Z,102332.84
2023-01-29T06:52:50.054Z,102326.13
2023-01-29T06:55:19.356Z,102334.72
2023-01-29T06:57:46.599Z,102328.88
2023-01-29T07:00:13.981Z,102325.47
2023-01-29T07:02:43.365Z,102340.91
2023-01-29T07:05:16.777Z,102339.97
2023-01-29T07:07:43.931Z,102333.19
2023-01-29T07:10:10.878Z,102333.19
2023-01-29T07:12:37.523Z,102330.69
2023-01-29T07:15:07.235Z,102324.66
2023-01-29T07:17:37.564Z,102322.03
2023-01-29T07:20:06.313Z,102327.22
2023-01-29T07:22:33.077Z,102324.75
2023-01-29T07:25:04.608Z,102318.72
2023-01-29T07:27:36.227Z,102306.50
2023-01-29T07:30:03.322Z,102307.66
2023-01-29T07:32:42.735Z,102312.16
2023-01-29T07:35:11.485Z,102321.63
2023-01-29T07:37:44.891Z,102325.09
2023-01-29T07:40:11.997Z,102326.03
2023-01-29T07:42:41.482Z,102324.47
2023-01-29T07:45:11.867Z,102321.00
2023-01-29T07:47:41.843Z,102310.78
2023-01-29T07:50:09.098Z,102297.13
2023-01-29T07:52:38.978Z,102296.25
2023-01-29T07:55:11.350Z,102307.50
2023-01-29T07:57:47.912Z,102294.59
2023-01-29T08:00:15.538Z,102287.75
2023-01-29T08:02:42.396Z,102280.09
2023-01-29T08:05:12.629Z,102279.25
2023-01-29T08:07:39.272Z,102282.75
2023-01-29T08:10:06.251Z,102277.69
2023-01-29T08:12:33.092Z,102287.19
2023-01-29T08:14:59.804Z,102279.34
2023-01-29T08:17:26.440Z,102278.56
2023-01-29T08:19:53.254Z,102271.66
2023-01-29T08:22:20.051Z,102275.28
2023-01-29T08:24:53.747Z,102287.34
2023-01-29T08:27:26.903Z,102288.22
2023-01-29T08:29:53.678Z,102289.16
2023-01-29T08:32:20.449Z,102283.16
2023-01-29T08:34:49.414Z,102274.53
2023-01-29T08:37:16.140Z,102284.84
2023-01-29T08:42:09.469Z,102263.47
2023-01-29T08:44:36.780Z,102254.16
2023-01-29T08:47:03.703Z,102263.53
2023-01-29T08:49:33.331Z,102268.69
2023-01-29T08:52:08.924Z,102267.03
2023-01-29T08:54:35.580Z,102274.06
2023-01-29T08:57:02.263Z,102278.38
2023-01-29T08:59:29.318Z,102273.19
2023-01-29T09:01:55.936Z,102277.56
2023-01-29T09:04:22.568Z,102276.69
2023-01-29T09:06:49.229Z,102261.31
2023-01-29T09:09:19.036Z,102263.06
2023-01-29T09:11:45.686Z,102255.31
2023-01-29T09:14:14.597Z,102264.91
2023-01-29T09:16:44.176Z,102252.13
2023-01-29T09:19:11.536Z,102240.25
2023-01-29T09:21:38.237Z,102251.38
2023-01-29T09:24:05.317Z,102254.00
2023-01-29T09:26:32.051Z,102254.91
2023-01-29T09:28:58.713Z,102254.91
2023-01-29T09:31:29.266Z,102258.47
2023-01-29T09:33:56.429Z,102249.84
2023-01-29T09:36:23.112Z,102268.19
2023-01-29T09:38:50.337Z,102258.63
2023-01-29T09:41:22.983Z,102264.72
2023-01-29T09:43:53.629Z,102256.16
2023-01-29T09:46:28.777Z,102246.09
2023-01-29T09:49:08.352Z,102232.44
2023-01-29T09:51:42.019Z,102229.09
2023-01-29T09:54:18.674Z,102223.22
2023-01-29T09:56:46.815Z,102217.41
2023-01-29T09:59:17.314Z,102222.94
2023-01-29T10:01:58.896Z,102221.47
2023-01-29T10:04:48.061Z,102213.78
2023-01-29T10:07:47.201Z,102211.50
2023-01-29T10:10:36.540Z,102208.19
2023-01-29T10:13:03.134Z,102220.31
2023-01-29T10:15:47.618Z,102216.03
2023-01-29T10:18:37.405Z,102204.94
2023-01-29T10:21:11.963Z,102193.81
2023-01-29T10:23:48.004Z,102192.22
2023-01-29T10:26:14.760Z,102171.00
2023-01-29T10:28:48.561Z,102178.06
2023-01-29T10:31:29.081Z,102176.59
2023-01-29T10:34:02.932Z,102181.16
2023-01-29T10:36:38.921Z,102175.41
2023-01-29T10:39:05.961Z,102177.31
2023-01-29T10:41:50.608Z,102179.06
2023-01-29T10:44:40.636Z,102184.22
2023-01-29T10:47:32.478Z,102181.81
2023-01-29T10:50:23.454Z,102176.06
2023-01-29T10:53:04.200Z,102179.63
2023-01-29T10:56:17.392Z,102162.53
2023-01-29T10:58:50.822Z,102162.59
2023-01-29T11:01:19.851Z,102155.56
2023-01-29T11:03:56.273Z,102152.31
2023-01-29T11:06:32.350Z,102142.16
2023-01-29T11:09:22.259Z,102143.41
2023-01-29T11:12:06.162Z,102140.09
2023-01-29T11:14:54.122Z,102143.59
2023-01-29T11:17:23.314Z,102135.47
2023-01-29T11:19:51.854Z,102140.66
2023-01-29T11:22:21.496Z,102131.38
2023-01-29T11:25:16.764Z,102134.13
2023-01-29T14:03:11.314Z,101967.09
2023-01-29T14:05:41.588Z,101955.81
2023-01-29T14:08:18.326Z,101950.59
2023-01-29T14:10:45.096Z,101943.66
2023-01-29T14:13:23.687Z,101945.38
2023-01-29T14:16:00.361Z,101946.13
2023-01-29T14:18:29.809Z,101946.97
2023-01-29T14:21:06.191Z,101941.81
2023-01-29T14:23:49.361Z,101940.91
2023-01-29T14:26:28.336Z,101939.97
2023-01-29T14:29:03.439Z,101938.09
2023-01-29T14:31:44.859Z,101944.03
2023-01-29T14:34:31.596Z,101941.28
2023-01-29T14:37:04.738Z,101942.94
2023-01-29T14:39:43.506Z,101937.75
2023-01-29T14:42:23.214Z,101941.28
2023-01-29T14:44:56.019Z,101939.47
2023-01-29T14:47:46.340Z,101939.34
2023-01-29T14:50:18.991Z,101937.53
2023-01-29T14:52:47.855Z,101929.81
2023-01-29T14:55:50.736Z,101924.53
2023-01-29T14:58:32.189Z,101924.53
2023-01-29T15:01:05.169Z,101933.88
2023-01-29T15:03:37.710Z,101925.16
2023-01-29T15:06:06.595Z,101917.41
2023-01-29T15:08:43.969Z,101919.03
2023-01-29T15:11:36.132Z,101925.97
2023-01-29T15:14:33.749Z,101914.69
2023-01-29T15:17:09.585Z,101900.75
2023-01-29T15:19:48.537Z,101907.66
2023-01-29T15:22:29.935Z,101899.91
2023-01-29T15:25:13.657Z,101892.16
2023-01-29T15:27:45.663Z,101888.78
2023-01-29T15:30:25.842Z,101887.03
2023-01-29T15:32:56.462Z,101885.25
2023-01-29T15:35:36.949Z,101885.25
2023-01-29T15:38:06.289Z,101879.19
2023-01-29T15:40:34.400Z,101869.75
2023-01-29T15:43:01.096Z,101873.09
2023-01-29T15:45:35.112Z,101876.47
2023-01-29T15:48:29.779Z,101868.66
2023-01-29T15:50:58.708Z,101868.63
2023-01-29T15:53:35.718Z,101874.69
2023-01-29T15:56:02.798Z,101868.63
2023-01-29T15:58:32.370Z,101869.44
2023-01-29T16:01:01.131Z,101863.41
2023-01-29T16:03:32.194Z,101866.84
2023-01-29T16:06:02.951Z,101865.16
2023-01-29T16:08:29.753Z,101865.16
2023-01-29T16:11:03.367Z,101853.03
2023-01-29T16:13:36.176Z,101856.53
2023-01-29T16:16:19.766Z,101855.69
2023-01-29T16:18:59.638Z,101849.66
2023-01-29T16:21:47.096Z,101845.31
2023-01-29T16:24:22.289Z,101854.00
2023-01-29T16:26:51.683Z,101851.38
2023-01-29T16:29:31.298Z,101860.00
2023-01-29T16:32:02.192Z,101857.41
2023-01-29T16:34:55.003Z,101846.22
2023-01-29T16:37:32.654Z,101852.25
2023-01-29T16:39:59.767Z,101844.41
2023-01-29T16:42:32.399Z,101836.66
2023-01-29T16:45:05.224Z,101840.09
2023-01-29T16:47:41.941Z,101845.25
2023-01-29T16:50:17.798Z,101843.59
2023-01-29T16:53:27.684Z,101837.53
2023-01-29T16:55:54.391Z,101832.41
2023-01-29T16:58:30.486Z,101834.06
2023-01-29T17:01:02.356Z,101840.13
2023-01-29T17:03:32.985Z,101834.88
2023-01-29T17:06:08.976Z,101839.25
2023-01-29T17:08:35.723Z,101832.31
2023-01-29T17:11:03.112Z,101836.72
2023-01-29T17:13:45.484Z,101827.25
2023-01-29T17:16:20.598Z,101820.34
2023-01-29T17:18:47.287Z,101826.41
2023-01-29T17:21:13.961Z,101811.72
2023-01-29T17:23:40.691Z,101812.63
2023-01-29T17:26:13.008Z,101815.13
2023-01-29T17:28:40.824Z,101810.81
2023-01-29T17:31:10.164Z,101805.75
2023-01-29T17:33:42.241Z,101798.75
2023-01-29T17:36:21.172Z,101795.28
2023-01-29T17:38:47.910Z,101793.47
2023-01-29T17:41:22.598Z,101791.69
2023-01-29T17:43:49.697Z,101789.13
2023-01-29T17:46:18.316Z,101787.25
2023-01-29T17:48:46.085Z,101780.38
2023-01-29T17:51:15.663Z,101776.84
2023-01-29T17:53:47.657Z,101768.22
2023-01-29T17:56:37.343Z,101763.09
2023-01-29T17:59:14.080Z,101751.13
2023-01-29T18:01:44.279Z,101745.13
2023-01-29T18:04:11.944Z,101749.53
2023-01-29T18:06:47.380Z,101738.25
2023-01-29T18:09:20.563Z,101737.56
2023-01-29T18:11:49.311Z,101731.56
2023-01-29T18:14:19.679Z,101728.25
2023-01-29T18:16:49.330Z,101723.97
2023-01-29T18:19:27.660Z,101711.91
2023-01-29T18:21:54.529Z,101712.78
2023-01-29T18:24:23.701Z,101708.50
2023-01-29T18:26:55.943Z,101699.88
2023-01-29T18:29:30.499Z,101701.59
2023-01-29T18:31:57.497Z,101706.78
2023-01-29T18:34:33.031Z,101702.41
2023-01-29T18:37:00.392Z,101706.72
2023-01-29T18:39:27.070Z,101710.13
2023-01-29T18:41:53.708Z,101707.59
2023-01-29T18:44:20.806Z,101706.75
2023-01-29T18:46:47.701Z,101687.78
2023-01-29T18:49:16.873Z,101685.19
2023-01-29T18:51:43.478Z,101686.91
2023-01-29T18:54:13.168Z,101691.16
2023-01-29T18:57:13.156Z,101672.16
2023-01-29T18:59:29.408Z,101676.50
2023-01-29T19:01:59.082Z,101689.41
2023-01-29T19:04:25.969Z,101685.84
2023-01-29T19:06:52.677Z,101688.41
2023-01-29T19:09:28.749Z,101686.69
2023-01-29T19:11:55.414Z,101679.78
2023-01-29T19:14:22.102Z,101671.91
2023-01-29T19:16:52.387Z,101665.94
2023-01-29T19:19:26.113Z,101663.38
2023-01-29T19:21:54.363Z,101666.84
2023-01-29T19:24:41.939Z,101668.59
2023-01-29T19:27:11.704Z,101658.22
2023-01-29T19:29:43.541Z,101648.75
2023-01-29T19:32:16.442Z,101642.75
2023-01-29T19:34:43.087Z,101637.53
2023-01-29T19:37:09.691Z,101626.31
2023-01-29T19:39:42.147Z,101618.53
2023-01-29T19:42:12.886Z,101623.66
2023-01-29T19:44:45.769Z,101626.28
2023-01-29T19:47:12.738Z,101622.88
2023-01-29T19:49:52.169Z,101613.44
2023-01-29T19:52:50.300Z,101600.56
2023-01-29T19:55:17.650Z,101603.16
2023-01-29T19:57:44.920Z,101598.84
2023-01-29T20:00:24.079Z,101586.81
2023-01-29T20:03:03.277Z,101585.97
2023-01-29T20:05:31.328Z,101590.28
2023-01-29T20:08:00.890Z,101593.72
2023-01-29T20:10:35.453Z,101583.38
2023-01-29T20:13:03.020Z,101584.31
2023-01-29T20:15:39.073Z,101575.66
2023-01-29T20:18:11.888Z,101573.94
2023-01-29T20:20:46.741Z,101562.81
2023-01-29T20:23:16.810Z,101560.19
2023-01-29T20:25:47.107Z,101549.00
2023-01-29T20:28:15.629Z,101554.22
2023-01-29T20:30:55.475Z,101549.94
2023-01-29T20:33:31.899Z,101542.19
2023-01-29T20:36:00.690Z,101530.94
2023-01-29T20:38:30.547Z,101525.75
2023-01-29T20:41:12.105Z,101526.59
2023-01-29T20:43:38.812Z,101524.88
2023-01-29T20:46:05.485Z,101517.13
2023-01-29T20:48:33.854Z,101517.94
2023-01-29T20:51:09.896Z,101506.69
2023-01-29T20:53:37.069Z,101506.63
2023-01-29T20:56:04.773Z,101505.06
2023-01-29T20:58:37.780Z,101495.50
2023-01-29T21:01:12.431Z,101487.78
2023-01-29T21:03:40.097Z,101485.22
2023-01-29T21:06:08.949Z,101484.38
2023-01-29T21:08:36.538Z,101468.94
2023-01-29T21:11:07.599Z,101460.34
2023-01-29T21:13:34.464Z,101462.94
2023-01-29T21:16:02.200Z,101462.97
2023-01-29T21:18:29.141Z,101453.50
2023-01-29T21:20:55.945Z,101460.38
2023-01-29T21:23:22.719Z,101454.44
2023-01-29T21:25:49.483Z,101439.72
2023-01-29T21:28:16.832Z,101438.91
2023-01-29T21:30:50.617Z,101430.25
2023-01-29T21:33:20.769Z,101430.19
2023-01-29T21:35:58.464Z,101425.03
2023-01-29T21:38:25.414Z,101418.97
2023-01-29T21:40:56.596Z,101417.25
2023-01-29T21:43:23.220Z,101419.81
2023-01-29T21:45:59.673Z,101408.59
2023-01-29T21:48:30.370Z,101406.00
2023-01-29T21:50:57.213Z,101406.88
2023-01-29T21:53:23.908Z,101386.97
2023-01-29T21:55:50.587Z,101387.84
2023-01-29T21:58:19.884Z,101381.84
2023-01-29T22:01:18.240Z,101371.44
2023-01-29T22:03:51.262Z,101363.72
2023-01-29T22:06:23.515Z,101368.88
2023-01-29T22:08:53.737Z,101363.69
2023-01-29T22:11:20.849Z,101363.66
2023-01-29T22:13:47.492Z,101363.66
2023-01-29T22:16:14.262Z,101351.66
2023-01-29T22:18:41.037Z,101358.50
2023-01-29T22:21:07.823Z,101354.13
2023-01-29T22:23:34.588Z,101342.94
2023-01-29T22:26:12.291Z,101348.94
2023-01-29T22:28:41.770Z,101342.00
2023-01-29T22:31:11.551Z,101342.91
2023-01-29T22:33:38.359Z,101334.28
2023-01-29T22:36:05.467Z,101319.66
2023-01-29T22:38:37.318Z,101321.34
2023-01-29T22:41:04.756Z,101317.97
2023-01-29T22:43:31.421Z,101323.97
2023-01-29T22:46:03.857Z,101303.31
2023-01-29T22:48:30.757Z,101302.47
2023-01-29T22:51:11.085Z,101295.59
2023-01-29T22:54:01.181Z,101280.16
2023-01-29T22:56:30.778Z,101271.53
2023-01-29T22:59:00.031Z,101285.34
2023-01-29T23:01:31.990Z,101274.13
2023-01-29T23:04:00.121Z,101266.38
2023-01-29T23:06:29.526Z,101251.78
2023-01-29T23:08:56.190Z,101248.31
2023-01-29T23:11:39.751Z,101243.97
2023-01-29T23:14:06.449Z,101240.56
2023-01-29T23:16:34.191Z,101233.63
2023-01-29T23:19:00.871Z,101227.66
2023-01-29T23:21:35.438Z,101221.59
2023-01-29T23:24:13.525Z,101211.31
2023-01-29T23:27:01.203Z,101213.88
2023-01-29T23:29:30.040Z,101192.41
2023-01-29T23:32:02.600Z,101194.94
2023-01-29T23:34:38.021Z,101194.09
2023-01-29T23:37:08.449Z,101188.13
2023-01-29T23:39:39.828Z,101182.09
2023-01-29T23:42:08.452Z,101171.72
2023-01-29T23:44:35.977Z,101174.34
2023-01-29T23:47:12.276Z,101171.69
2023-01-29T23:49:43.563Z,101169.06
2023-01-29T23:52:15.517Z,101160.47
2023-01-29T23:54:54.481Z,101151.88
2023-01-29T23:57:24.546Z,101136.38
2023-01-29T23:59:55.969Z,101143.25
